sensor_id;sensor_type;location;lat;lon;timestamp;P1;durP1;ratioP1;P2;durP2;ratioP2
21474;SDS011;10899;53.576;9.960;2022-10-29T00:01:56;4.50;;;2.38;;
21474;SDS011;10899;53.576;9.960;2022-10-29T00:04:22;3.63;;;2.10;;
21474;SDS011;10899;53.576;9.960;2022-10-29T00:06:49;5.38;;;2.25;;
21474;SDS011;10899;53.576;9.960;2022-10-29T00:09:16;5.47;;;2.47;;
21474;SDS011;10899;53.576;9.960;2022-10-29T00:11:42;3.83;;;2.30;;
21474;SDS011;10899;53.576;9.960;2022-10-29T00:14:09;7.20;;;2.30;;
21474;SDS011;10899;53.576;9.960;2022-10-29T00:16:36;4.38;;;2.00;;
21474;SDS011;10899;53.576;9.960;2022-10-29T00:19:03;5.15;;;2.10;;
21474;SDS011;10899;53.576;9.960;2022-10-29T00:21:30;4.72;;;1.90;;
21474;SDS011;10899;53.576;9.960;2022-10-29T00:23:57;4.57;;;2.00;;
21474;SDS011;10899;53.576;9.960;2022-10-29T00:26:24;3.42;;;1.98;;
21474;SDS011;10899;53.576;9.960;2022-10-29T00:28:51;4.88;;;1.90;;
21474;SDS011;10899;53.576;9.960;2022-10-29T00:31:18;3.00;;;1.92;;
21474;SDS011;10899;53.576;9.960;2022-10-29T00:33:48;4.53;;;2.13;;
21474;SDS011;10899;53.576;9.960;2022-10-29T00:36:16;5.50;;;1.92;;
21474;SDS011;10899;53.576;9.960;2022-10-29T00:38:43;5.05;;;2.00;;
21474;SDS011;10899;53.576;9.960;2022-10-29T00:41:10;3.60;;;2.15;;
21474;SDS011;10899;53.576;9.960;2022-10-29T00:43:39;3.60;;;1.80;;
21474;SDS011;10899;53.576;9.960;2022-10-29T00:48:33;3.75;;;1.70;;
21474;SDS011;10899;53.576;9.960;2022-10-29T00:51:02;2.72;;;1.67;;
21474;SDS011;10899;53.576;9.960;2022-10-29T00:53:31;4.00;;;1.92;;
21474;SDS011;10899;53.576;9.960;2022-10-29T00:55:58;3.85;;;1.90;;
21474;SDS011;10899;53.576;9.960;2022-10-29T00:58:26;4.72;;;2.05;;
21474;SDS011;10899;53.576;9.960;2022-10-29T01:00:53;4.63;;;2.08;;
21474;SDS011;10899;53.576;9.960;2022-10-29T01:03:20;7.55;;;2.10;;
21474;SDS011;10899;53.576;9.960;2022-10-29T01:05:46;4.55;;;2.20;;
21474;SDS011;10899;53.576;9.960;2022-10-29T01:08:13;7.10;;;2.17;;
21474;SDS011;10899;53.576;9.960;2022-10-29T01:10:56;7.68;;;2.17;;
21474;SDS011;10899;53.576;9.960;2022-10-29T01:18:48;5.90;;;1.80;;
21474;SDS011;10899;53.576;9.960;2022-10-29T01:26:46;4.90;;;1.85;;
21474;SDS011;10899;53.576;9.960;2022-10-29T01:32:00;4.65;;;1.73;;
21474;SDS011;10899;53.576;9.960;2022-10-29T01:34:33;6.72;;;2.15;;
21474;SDS011;10899;53.576;9.960;2022-10-29T01:37:13;3.67;;;1.75;;
21474;SDS011;10899;53.576;9.960;2022-10-29T01:42:11;5.85;;;2.15;;
21474;SDS011;10899;53.576;9.960;2022-10-29T01:44:45;7.40;;;1.83;;
21474;SDS011;10899;53.576;9.960;2022-10-29T01:47:18;5.53;;;2.20;;
21474;SDS011;10899;53.576;9.960;2022-10-29T01:49:50;4.13;;;2.28;;
21474;SDS011;10899;53.576;9.960;2022-10-29T01:52:18;5.85;;;2.33;;
21474;SDS011;10899;53.576;9.960;2022-10-29T01:54:46;5.53;;;2.33;;
21474;SDS011;10899;53.576;9.960;2022-10-29T01:57:29;4.30;;;2.10;;
21474;SDS011;10899;53.576;9.960;2022-10-29T01:59:58;8.80;;;2.38;;
21474;SDS011;10899;53.576;9.960;2022-10-29T02:02:29;5.45;;;1.85;;
21474;SDS011;10899;53.576;9.960;2022-10-29T02:10:27;5.95;;;2.03;;
21474;SDS011;10899;53.576;9.960;2022-10-29T02:12:51;4.47;;;2.20;;
21474;SDS011;10899;53.576;9.960;2022-10-29T02:15:20;5.47;;;2.38;;
21474;SDS011;10899;53.576;9.960;2022-10-29T02:17:48;9.38;;;2.08;;
21474;SDS011;10899;53.576;9.960;2022-10-29T02:20:15;5.55;;;2.30;;
21474;SDS011;10899;53.576;9.960;2022-10-29T02:22:42;4.53;;;1.92;;
21474;SDS011;10899;53.576;9.960;2022-10-29T02:25:09;6.22;;;2.20;;
21474;SDS011;10899;53.576;9.960;2022-10-29T02:27:35;6.20;;;2.00;;
21474;SDS011;10899;53.576;9.960;2022-10-29T02:30:02;4.28;;;2.33;;
21474;SDS011;10899;53.576;9.960;2022-10-29T02:32:29;4.50;;;2.33;;
21474;SDS011;10899;53.576;9.960;2022-10-29T02:34:58;7.18;;;1.80;;
21474;SDS011;10899;53.576;9.960;2022-10-29T02:37:24;5.28;;;2.30;;
21474;SDS011;10899;53.576;9.960;2022-10-29T02:39:51;9.88;;;2.47;;
21474;SDS011;10899;53.576;9.960;2022-10-29T02:42:17;6.03;;;2.38;;
21474;SDS011;10899;53.576;9.960;2022-10-29T02:44:44;6.25;;;2.40;;
21474;SDS011;10899;53.576;9.960;2022-10-29T02:47:10;7.53;;;2.00;;
21474;SDS011;10899;53.576;9.960;2022-10-29T02:49:37;6.53;;;2.22;;
21474;SDS011;10899;53.576;9.960;2022-10-29T02:52:03;7.07;;;2.25;;
21474;SDS011;10899;53.576;9.960;2022-10-29T02:54:30;3.70;;;1.80;;
21474;SDS011;10899;53.576;9.960;2022-10-29T02:56:57;6.65;;;1.88;;
21474;SDS011;10899;53.576;9.960;2022-10-29T02:59:23;7.07;;;2.20;;
21474;SDS011;10899;53.576;9.960;2022-10-29T03:01:50;4.82;;;1.90;;
21474;SDS011;10899;53.576;9.960;2022-10-29T03:04:16;8.55;;;2.15;;
21474;SDS011;10899;53.576;9.960;2022-10-29T03:06:44;4.05;;;1.88;;
21474;SDS011;10899;53.576;9.960;2022-10-29T03:09:11;6.05;;;2.30;;
21474;SDS011;10899;53.576;9.960;2022-10-29T03:11:38;4.97;;;2.03;;
21474;SDS011;10899;53.576;9.960;2022-10-29T03:14:04;5.57;;;1.58;;
21474;SDS011;10899;53.576;9.960;2022-10-29T03:16:31;4.30;;;1.95;;
21474;SDS011;10899;53.576;9.960;2022-10-29T03:18:57;2.45;;;1.80;;
21474;SDS011;10899;53.576;9.960;2022-10-29T03:21:24;5.43;;;1.80;;
21474;SDS011;10899;53.576;9.960;2022-10-29T03:23:51;3.65;;;2.05;;
21474;SDS011;10899;53.576;9.960;2022-10-29T03:26:17;5.63;;;2.13;;
21474;SDS011;10899;53.576;9.960;2022-10-29T03:28:44;7.50;;;2.20;;
21474;SDS011;10899;53.576;9.960;2022-10-29T03:31:10;7.32;;;2.17;;
21474;SDS011;10899;53.576;9.960;2022-10-29T03:33:37;6.75;;;2.05;;
21474;SDS011;10899;53.576;9.960;2022-10-29T03:36:04;7.78;;;1.80;;
21474;SDS011;10899;53.576;9.960;2022-10-29T03:38:32;5.43;;;2.25;;
21474;SDS011;10899;53.576;9.960;2022-10-29T03:40:58;6.95;;;2.42;;
21474;SDS011;10899;53.576;9.960;2022-10-29T03:43:25;4.25;;;2.10;;
21474;SDS011;10899;53.576;9.960;2022-10-29T03:45:52;5.22;;;1.83;;
21474;SDS011;10899;53.576;9.960;2022-10-29T03:48:19;7.47;;;2.30;;
21474;SDS011;10899;53.576;9.960;2022-10-29T03:51:02;4.88;;;2.13;;
21474;SDS011;10899;53.576;9.960;2022-10-29T03:53:33;5.75;;;1.73;;
21474;SDS011;10899;53.576;9.960;2022-10-29T03:55:59;5.93;;;1.90;;
21474;SDS011;10899;53.576;9.960;2022-10-29T03:58:26;7.32;;;2.17;;
21474;SDS011;10899;53.576;9.960;2022-10-29T04:00:54;7.78;;;1.92;;
21474;SDS011;10899;53.576;9.960;2022-10-29T04:03:20;5.75;;;1.95;;
21474;SDS011;10899;53.576;9.960;2022-10-29T04:05:47;4.53;;;2.00;;
21474;SDS011;10899;53.576;9.960;2022-10-29T04:08:14;5.25;;;1.85;;
21474;SDS011;10899;53.576;9.960;2022-10-29T04:10:44;3.05;;;1.75;;
21474;SDS011;10899;53.576;9.960;2022-10-29T04:13:11;5.95;;;2.33;;
21474;SDS011;10899;53.576;9.960;2022-10-29T04:15:37;4.50;;;1.98;;
21474;SDS011;10899;53.576;9.960;2022-10-29T04:18:04;3.70;;;1.88;;
21474;SDS011;10899;53.576;9.960;2022-10-29T04:20:31;6.05;;;2.28;;
21474;SDS011;10899;53.576;9.960;2022-10-29T04:22:57;6.95;;;2.22;;
21474;SDS011;10899;53.576;9.960;2022-10-29T04:25:24;7.63;;;1.95;;
21474;SDS011;10899;53.576;9.960;2022-10-29T04:27:52;4.70;;;1.90;;
21474;SDS011;10899;53.576;9.960;2022-10-29T04:30:19;4.70;;;2.00;;
21474;SDS011;10899;53.576;9.960;2022-10-29T04:32:46;3.65;;;1.70;;
21474;SDS011;10899;53.576;9.960;2022-10-29T04:35:12;5.60;;;2.30;;
21474;SDS011;10899;53.576;9.960;2022-10-29T04:37:39;8.35;;;2.22;;
21474;SDS011;10899;53.576;9.960;2022-10-29T04:40:05;4.30;;;1.75;;
21474;SDS011;10899;53.576;9.960;2022-10-29T04:42:36;4.40;;;1.80;;
21474;SDS011;10899;53.576;9.960;2022-10-29T04:45:03;10.13;;;1.92;;
21474;SDS011;10899;53.576;9.960;2022-10-29T04:47:30;8.23;;;1.98;;
21474;SDS011;10899;53.576;9.960;2022-10-29T04:49:56;4.03;;;1.95;;
21474;SDS011;10899;53.576;9.960;2022-10-29T04:52:23;2.45;;;1.63;;
21474;SDS011;10899;53.576;9.960;2022-10-29T04:54:50;4.35;;;2.00;;
21474;SDS011;10899;53.576;9.960;2022-10-29T04:57:16;4.75;;;1.73;;
21474;SDS011;10899;53.576;9.960;2022-10-29T04:59:43;5.53;;;2.00;;
21474;SDS011;10899;53.576;9.960;2022-10-29T05:02:09;6.63;;;2.20;;
21474;SDS011;10899;53.576;9.960;2022-10-29T05:04:36;4.70;;;2.00;;
21474;SDS011;10899;53.576;9.960;2022-10-29T05:07:02;13.15;;;2.53;;
21474;SDS011;10899;53.576;9.960;2022-10-29T05:09:29;5.70;;;2.30;;
21474;SDS011;10899;53.576;9.960;2022-10-29T05:11:55;6.38;;;2.33;;
21474;SDS011;10899;53.576;9.960;2022-10-29T05:14:22;7.57;;;2.22;;
21474;SDS011;10899;53.576;9.960;2022-10-29T05:16:48;5.78;;;1.92;;
21474;SDS011;10899;53.576;9.960;2022-10-29T05:19:15;7.90;;;2.30;;
21474;SDS011;10899;53.576;9.960;2022-10-29T05:21:41;10.90;;;2.78;;
21474;SDS011;10899;53.576;9.960;2022-10-29T05:24:08;8.32;;;2.22;;
21474;SDS011;10899;53.576;9.960;2022-10-29T05:26:34;8.02;;;2.40;;
21474;SDS011;10899;53.576;9.960;2022-10-29T05:29:01;7.90;;;2.25;;
21474;SDS011;10899;53.576;9.960;2022-10-29T05:31:28;8.52;;;2.15;;
21474;SDS011;10899;53.576;9.960;2022-10-29T05:33:54;7.55;;;2.30;;
21474;SDS011;10899;53.576;9.960;2022-10-29T05:36:21;6.78;;;2.13;;
21474;SDS011;10899;53.576;9.960;2022-10-29T05:38:47;10.15;;;2.35;;
21474;SDS011;10899;53.576;9.960;2022-10-29T05:41:14;5.40;;;2.08;;
21474;SDS011;10899;53.576;9.960;2022-10-29T05:43:40;9.38;;;2.30;;
21474;SDS011;10899;53.576;9.960;2022-10-29T05:46:07;7.35;;;2.15;;
21474;SDS011;10899;53.576;9.960;2022-10-29T05:48:33;10.43;;;2.03;;
21474;SDS011;10899;53.576;9.960;2022-10-29T05:51:00;7.93;;;2.10;;
21474;SDS011;10899;53.576;9.960;2022-10-29T05:53:26;6.13;;;1.67;;
21474;SDS011;10899;53.576;9.960;2022-10-29T05:55:53;7.95;;;2.22;;
21474;SDS011;10899;53.576;9.960;2022-10-29T05:58:20;6.85;;;2.20;;
21474;SDS011;10899;53.576;9.960;2022-10-29T06:00:46;10.80;;;2.00;;
21474;SDS011;10899;53.576;9.960;2022-10-29T06:03:21;6.45;;;1.88;;
21474;SDS011;10899;53.576;9.960;2022-10-29T06:05:48;4.63;;;1.73;;
21474;SDS011;10899;53.576;9.960;2022-10-29T06:08:15;4.35;;;1.83;;
21474;SDS011;10899;53.576;9.960;2022-10-29T06:10:42;2.88;;;1.77;;
21474;SDS011;10899;53.576;9.960;2022-10-29T06:13:09;6.65;;;1.73;;
21474;SDS011;10899;53.576;9.960;2022-10-29T06:15:36;3.45;;;2.03;;
21474;SDS011;10899;53.576;9.960;2022-10-29T06:18:03;5.95;;;2.00;;
21474;SDS011;10899;53.576;9.960;2022-10-29T06:20:29;3.97;;;1.88;;
21474;SDS011;10899;53.576;9.960;2022-10-29T06:22:56;3.80;;;1.80;;
21474;SDS011;10899;53.576;9.960;2022-10-29T06:25:23;7.47;;;2.30;;
21474;SDS011;10899;53.576;9.960;2022-10-29T06:27:57;7.22;;;2.17;;
21474;SDS011;10899;53.576;9.960;2022-10-29T06:30:24;4.40;;;1.60;;
21474;SDS011;10899;53.576;9.960;2022-10-29T06:32:50;4.13;;;1.90;;
21474;SDS011;10899;53.576;9.960;2022-10-29T06:35:17;3.63;;;1.98;;
21474;SDS011;10899;53.576;9.960;2022-10-29T06:37:43;3.95;;;1.98;;
21474;SDS011;10899;53.576;9.960;2022-10-29T06:40:10;3.10;;;1.90;;
21474;SDS011;10899;53.576;9.960;2022-10-29T06:42:37;4.32;;;2.00;;
21474;SDS011;10899;53.576;9.960;2022-10-29T06:45:03;3.15;;;1.73;;
21474;SDS011;10899;53.576;9.960;2022-10-29T06:47:30;4.88;;;1.70;;
21474;SDS011;10899;53.576;9.960;2022-10-29T06:49:56;3.78;;;1.90;;
21474;SDS011;10899;53.576;9.960;2022-10-29T06:52:23;3.40;;;1.75;;
21474;SDS011;10899;53.576;9.960;2022-10-29T06:54:50;5.90;;;2.22;;
21474;SDS011;10899;53.576;9.960;2022-10-29T06:57:16;4.93;;;2.20;;
21474;SDS011;10899;53.576;9.960;2022-10-29T06:59:43;4.57;;;2.00;;
21474;SDS011;10899;53.576;9.960;2022-10-29T07:02:10;5.65;;;1.77;;
21474;SDS011;10899;53.576;9.960;2022-10-29T07:04:38;3.40;;;1.58;;
21474;SDS011;10899;53.576;9.960;2022-10-29T07:07:04;4.25;;;1.88;;
21474;SDS011;10899;53.576;9.960;2022-10-29T07:09:31;4.50;;;1.77;;
21474;SDS011;10899;53.576;9.960;2022-10-29T07:11:57;2.72;;;1.55;;
21474;SDS011;10899;53.576;9.960;2022-10-29T07:14:24;3.10;;;1.70;;
21474;SDS011;10899;53.576;9.960;2022-10-29T07:16:50;3.90;;;1.85;;
21474;SDS011;10899;53.576;9.960;2022-10-29T07:19:17;5.32;;;1.70;;
21474;SDS011;10899;53.576;9.960;2022-10-29T07:21:43;3.85;;;2.10;;
21474;SDS011;10899;53.576;9.960;2022-10-29T07:24:10;3.40;;;1.83;;
21474;SDS011;10899;53.576;9.960;2022-10-29T07:26:36;3.63;;;1.63;;
21474;SDS011;10899;53.576;9.960;2022-10-29T07:29:03;3.20;;;2.03;;
21474;SDS011;10899;53.576;9.960;2022-10-29T07:31:29;2.45;;;1.73;;
21474;SDS011;10899;53.576;9.960;2022-10-29T07:33:56;3.45;;;1.98;;
21474;SDS011;10899;53.576;9.960;2022-10-29T07:36:23;5.57;;;1.58;;
21474;SDS011;10899;53.576;9.960;2022-10-29T07:38:49;3.65;;;1.65;;
21474;SDS011;10899;53.576;9.960;2022-10-29T07:41:16;3.45;;;1.83;;
21474;SDS011;10899;53.576;9.960;2022-10-29T07:43:42;3.92;;;1.63;;
21474;SDS011;10899;53.576;9.960;2022-10-29T07:46:09;4.75;;;1.52;;
21474;SDS011;10899;53.576;9.960;2022-10-29T07:48:35;4.63;;;2.00;;
21474;SDS011;10899;53.576;9.960;2022-10-29T07:51:03;4.07;;;1.70;;
21474;SDS011;10899;53.576;9.960;2022-10-29T07:53:29;3.38;;;1.95;;
21474;SDS011;10899;53.576;9.960;2022-10-29T07:55:57;3.05;;;1.75;;
21474;SDS011;10899;53.576;9.960;2022-10-29T07:58:23;3.42;;;1.73;;
21474;SDS011;10899;53.576;9.960;2022-10-29T08:00:50;1.63;;;1.42;;
21474;SDS011;10899;53.576;9.960;2022-10-29T08:03:17;4.80;;;1.67;;
21474;SDS011;10899;53.576;9.960;2022-10-29T08:05:43;3.03;;;1.40;;
21474;SDS011;10899;53.576;9.960;2022-10-29T08:08:13;3.13;;;1.75;;
21474;SDS011;10899;53.576;9.960;2022-10-29T08:10:41;3.83;;;1.95;;
21474;SDS011;10899;53.576;9.960;2022-10-29T08:13:09;2.40;;;1.83;;
21474;SDS011;10899;53.576;9.960;2022-10-29T08:15:35;2.45;;;1.52;;
21474;SDS011;10899;53.576;9.960;2022-10-29T08:18:07;3.00;;;1.40;;
21474;SDS011;10899;53.576;9.960;2022-10-29T08:20:34;3.75;;;1.77;;
21474;SDS011;10899;53.576;9.960;2022-10-29T08:23:01;2.60;;;1.35;;
21474;SDS011;10899;53.576;9.960;2022-10-29T08:25:27;4.25;;;1.45;;
21474;SDS011;10899;53.576;9.960;2022-10-29T08:28:03;1.65;;;1.40;;
21474;SDS011;10899;53.576;9.960;2022-10-29T08:30:30;5.03;;;1.80;;
21474;SDS011;10899;53.576;9.960;2022-10-29T08:32:57;2.90;;;1.70;;
21474;SDS011;10899;53.576;9.960;2022-10-29T08:35:23;2.08;;;1.38;;
21474;SDS011;10899;53.576;9.960;2022-10-29T08:37:50;3.72;;;1.55;;
21474;SDS011;10899;53.576;9.960;2022-10-29T08:45:47;3.20;;;1.52;;
21474;SDS011;10899;53.576;9.960;2022-10-29T08:48:26;1.98;;;1.60;;
21474;SDS011;10899;53.576;9.960;2022-10-29T08:53:38;2.53;;;1.75;;
21474;SDS011;10899;53.576;9.960;2022-10-29T08:56:09;4.43;;;1.40;;
21474;SDS011;10899;53.576;9.960;2022-10-29T08:58:40;4.50;;;1.90;;
21474;SDS011;10899;53.576;9.960;2022-10-29T09:01:09;2.38;;;1.70;;
21474;SDS011;10899;53.576;9.960;2022-10-29T09:03:36;2.75;;;1.52;;
21474;SDS011;10899;53.576;9.960;2022-10-29T09:06:13;2.70;;;1.40;;
21474;SDS011;10899;53.576;9.960;2022-10-29T09:08:50;3.03;;;1.63;;
21474;SDS011;10899;53.576;9.960;2022-10-29T09:14:21;3.00;;;1.52;;
21474;SDS011;10899;53.576;9.960;2022-10-29T09:24:42;3.15;;;1.75;;
21474;SDS011;10899;53.576;9.960;2022-10-29T09:27:16;3.42;;;1.67;;
21474;SDS011;10899;53.576;9.960;2022-10-29T09:29:59;2.22;;;1.60;;
21474;SDS011;10899;53.576;9.960;2022-10-29T09:32:29;3.97;;;1.45;;
21474;SDS011;10899;53.576;9.960;2022-10-29T09:35:02;4.10;;;1.52;;
21474;SDS011;10899;53.576;9.960;2022-10-29T09:40:12;2.97;;;1.73;;
21474;SDS011;10899;53.576;9.960;2022-10-29T09:42:41;2.08;;;1.35;;
21474;SDS011;10899;53.576;9.960;2022-10-29T09:45:12;2.92;;;1.63;;
21474;SDS011;10899;53.576;9.960;2022-10-29T09:50:21;1.70;;;1.55;;
21474;SDS011;10899;53.576;9.960;2022-10-29T09:52:51;2.33;;;1.60;;
21474;SDS011;10899;53.576;9.960;2022-10-29T09:55:26;1.70;;;1.30;;
21474;SDS011;10899;53.576;9.960;2022-10-29T09:57:53;2.15;;;1.50;;
21474;SDS011;10899;53.576;9.960;2022-10-29T10:02:48;1.38;;;1.27;;
21474;SDS011;10899;53.576;9.960;2022-10-29T10:05:25;1.50;;;1.40;;
21474;SDS011;10899;53.576;9.960;2022-10-29T10:10:31;2.88;;;1.60;;
21474;SDS011;10899;53.576;9.960;2022-10-29T10:13:04;2.30;;;1.20;;
21474;SDS011;10899;53.576;9.960;2022-10-29T10:15:35;2.15;;;1.35;;
21474;SDS011;10899;53.576;9.960;2022-10-29T10:18:03;3.40;;;1.80;;
21474;SDS011;10899;53.576;9.960;2022-10-29T10:20:40;2.45;;;1.70;;
21474;SDS011;10899;53.576;9.960;2022-10-29T10:26:01;1.67;;;1.30;;
21474;SDS011;10899;53.576;9.960;2022-10-29T10:28:28;3.60;;;1.58;;
21474;SDS011;10899;53.576;9.960;2022-10-29T10:31:12;4.93;;;1.60;;
21474;SDS011;10899;53.576;9.960;2022-10-29T10:33:49;1.67;;;1.50;;
21474;SDS011;10899;53.576;9.960;2022-10-29T10:36:16;2.13;;;1.67;;
21474;SDS011;10899;53.576;9.960;2022-10-29T10:38:50;2.58;;;1.33;;
21474;SDS011;10899;53.576;9.960;2022-10-29T10:41:27;3.30;;;1.50;;
21474;SDS011;10899;53.576;9.960;2022-10-29T10:43:58;3.13;;;1.40;;
21474;SDS011;10899;53.576;9.960;2022-10-29T10:46:27;2.83;;;1.60;;
21474;SDS011;10899;53.576;9.960;2022-10-29T10:51:34;2.35;;;1.50;;
21474;SDS011;10899;53.576;9.960;2022-10-29T10:54:02;1.63;;;1.30;;
21474;SDS011;10899;53.576;9.960;2022-10-29T10:56:30;1.60;;;1.23;;
21474;SDS011;10899;53.576;9.960;2022-10-29T10:59:06;2.55;;;1.52;;
21474;SDS011;10899;53.576;9.960;2022-10-29T11:01:37;2.13;;;1.50;;
21474;SDS011;10899;53.576;9.960;2022-10-29T11:04:12;1.70;;;1.52;;
21474;SDS011;10899;53.576;9.960;2022-10-29T11:06:40;2.20;;;1.45;;
21474;SDS011;10899;53.576;9.960;2022-10-29T11:11:56;2.33;;;1.70;;
21474;SDS011;10899;53.576;9.960;2022-10-29T11:14:29;3.70;;;1.85;;
21474;SDS011;10899;53.576;9.960;2022-10-29T11:17:02;2.03;;;1.50;;
21474;SDS011;10899;53.576;9.960;2022-10-29T11:19:31;3.22;;;1.63;;
21474;SDS011;10899;53.576;9.960;2022-10-29T11:22:03;3.47;;;1.70;;
21474;SDS011;10899;53.576;9.960;2022-10-29T11:32:37;2.00;;;1.42;;
21474;SDS011;10899;53.576;9.960;2022-10-29T11:35:14;2.55;;;1.40;;
21474;SDS011;10899;53.576;9.960;2022-10-29T11:43:11;2.45;;;1.50;;
21474;SDS011;10899;53.576;9.960;2022-10-29T11:49:02;1.67;;;1.30;;
21474;SDS011;10899;53.576;9.960;2022-10-29T11:54:51;2.28;;;1.70;;
21474;SDS011;10899;53.576;9.960;2022-10-29T11:57:22;3.00;;;1.58;;
21474;SDS011;10899;53.576;9.960;2022-10-29T12:05:07;2.20;;;1.77;;
21474;SDS011;10899;53.576;9.960;2022-10-29T12:07:43;2.80;;;1.60;;
21474;SDS011;10899;53.576;9.960;2022-10-29T12:12:51;2.35;;;1.40;;
21474;SDS011;10899;53.576;9.960;2022-10-29T12:17:59;1.48;;;1.38;;
21474;SDS011;10899;53.576;9.960;2022-10-29T12:20:36;1.88;;;1.55;;
21474;SDS011;10899;53.576;9.960;2022-10-29T12:23:18;1.83;;;1.55;;
21474;SDS011;10899;53.576;9.960;2022-10-29T12:25:54;1.70;;;1.40;;
21474;SDS011;10899;53.576;9.960;2022-10-29T12:28:35;3.47;;;1.48;;
21474;SDS011;10899;53.576;9.960;2022-10-29T12:34:07;1.83;;;1.42;;
21474;SDS011;10899;53.576;9.960;2022-10-29T12:36:37;1.70;;;1.45;;
21474;SDS011;10899;53.576;9.960;2022-10-29T12:39:13;2.50;;;1.70;;
21474;SDS011;10899;53.576;9.960;2022-10-29T12:41:47;2.03;;;1.65;;
21474;SDS011;10899;53.576;9.960;2022-10-29T12:44:23;2.03;;;1.50;;
21474;SDS011;10899;53.576;9.960;2022-10-29T12:52:10;1.80;;;1.55;;
21474;SDS011;10899;53.576;9.960;2022-10-29T12:54:41;2.20;;;1.67;;
21474;SDS011;10899;53.576;9.960;2022-10-29T12:59:39;2.30;;;1.40;;
21474;SDS011;10899;53.576;9.960;2022-10-29T13:07:29;1.70;;;1.55;;
21474;SDS011;10899;53.576;9.960;2022-10-29T13:15:20;3.22;;;1.70;;
21474;SDS011;10899;53.576;9.960;2022-10-29T13:17:48;2.15;;;1.60;;
21474;SDS011;10899;53.576;9.960;2022-10-29T13:20:24;2.30;;;1.67;;
21474;SDS011;10899;53.576;9.960;2022-10-29T13:22:53;2.53;;;1.52;;
21474;SDS011;10899;53.576;9.960;2022-10-29T13:33:01;2.33;;;1.70;;
21474;SDS011;10899;53.576;9.960;2022-10-29T13:35:56;2.30;;;1.38;;
21474;SDS011;10899;53.576;9.960;2022-10-29T13:44:03;2.13;;;1.45;;
21474;SDS011;10899;53.576;9.960;2022-10-29T13:48:57;3.38;;;1.83;;
21474;SDS011;10899;53.576;9.960;2022-10-29T13:54:16;3.50;;;1.80;;
21474;SDS011;10899;53.576;9.960;2022-10-29T14:00:00;1.67;;;1.48;;
21474;SDS011;10899;53.576;9.960;2022-10-29T14:04:55;1.50;;;1.40;;
21474;SDS011;10899;53.576;9.960;2022-10-29T14:07:33;2.10;;;1.73;;
21474;SDS011;10899;53.576;9.960;2022-10-29T14:10:02;2.25;;;1.73;;
21474;SDS011;10899;53.576;9.960;2022-10-29T14:12:31;2.78;;;1.80;;
21474;SDS011;10899;53.576;9.960;2022-10-29T14:15:05;4.20;;;1.65;;
21474;SDS011;10899;53.576;9.960;2022-10-29T14:17:32;2.13;;;1.85;;
21474;SDS011;10899;53.576;9.960;2022-10-29T14:19:58;2.67;;;1.98;;
21474;SDS011;10899;53.576;9.960;2022-10-29T14:24:55;2.85;;;2.03;;
21474;SDS011;10899;53.576;9.960;2022-10-29T14:27:21;1.75;;;1.65;;
21474;SDS011;10899;53.576;9.960;2022-10-29T14:29:48;2.35;;;2.05;;
21474;SDS011;10899;53.576;9.960;2022-10-29T14:32:15;2.67;;;1.70;;
21474;SDS011;10899;53.576;9.960;2022-10-29T14:34:47;2.38;;;1.83;;
21474;SDS011;10899;53.576;9.960;2022-10-29T14:37:18;2.00;;;1.75;;
21474;SDS011;10899;53.576;9.960;2022-10-29T14:39:51;4.53;;;1.70;;
21474;SDS011;10899;53.576;9.960;2022-10-29T14:44:51;2.45;;;1.80;;
21474;SDS011;10899;53.576;9.960;2022-10-29T14:47:22;1.92;;;1.70;;
21474;SDS011;10899;53.576;9.960;2022-10-29T14:49:49;2.30;;;1.60;;
21474;SDS011;10899;53.576;9.960;2022-10-29T14:54:47;2.53;;;1.88;;
21474;SDS011;10899;53.576;9.960;2022-10-29T14:57:15;3.90;;;1.98;;
21474;SDS011;10899;53.576;9.960;2022-10-29T14:59:48;2.97;;;1.77;;
21474;SDS011;10899;53.576;9.960;2022-10-29T15:02:15;3.35;;;1.90;;
21474;SDS011;10899;53.576;9.960;2022-10-29T15:04:48;2.40;;;1.85;;
21474;SDS011;10899;53.576;9.960;2022-10-29T15:07:20;2.10;;;1.90;;
21474;SDS011;10899;53.576;9.960;2022-10-29T15:10:17;3.85;;;1.98;;
21474;SDS011;10899;53.576;9.960;2022-10-29T15:12:44;2.97;;;1.83;;
21474;SDS011;10899;53.576;9.960;2022-10-29T15:17:51;2.70;;;1.92;;
21474;SDS011;10899;53.576;9.960;2022-10-29T15:20:22;2.15;;;1.73;;
21474;SDS011;10899;53.576;9.960;2022-10-29T15:22:52;2.38;;;1.85;;
21474;SDS011;10899;53.576;9.960;2022-10-29T15:25:30;3.08;;;1.77;;
21474;SDS011;10899;53.576;9.960;2022-10-29T15:27:58;2.25;;;2.05;;
21474;SDS011;10899;53.576;9.960;2022-10-29T15:30:35;2.88;;;1.80;;
21474;SDS011;10899;53.576;9.960;2022-10-29T15:33:03;3.28;;;1.83;;
21474;SDS011;10899;53.576;9.960;2022-10-29T15:35:33;2.65;;;1.77;;
21474;SDS011;10899;53.576;9.960;2022-10-29T15:38:00;2.97;;;1.80;;
21474;SDS011;10899;53.576;9.960;2022-10-29T15:40:29;2.25;;;1.67;;
21474;SDS011;10899;53.576;9.960;2022-10-29T15:42:56;4.22;;;1.92;;
21474;SDS011;10899;53.576;9.960;2022-10-29T15:45:53;2.97;;;1.52;;
21474;SDS011;10899;53.576;9.960;2022-10-29T15:48:28;3.40;;;1.95;;
21474;SDS011;10899;53.576;9.960;2022-10-29T15:50:54;3.70;;;1.85;;
21474;SDS011;10899;53.576;9.960;2022-10-29T15:53:21;4.20;;;2.00;;
21474;SDS011;10899;53.576;9.960;2022-10-29T15:55:50;4.88;;;2.03;;
21474;SDS011;10899;53.576;9.960;2022-10-29T15:58:20;2.60;;;1.70;;
21474;SDS011;10899;53.576;9.960;2022-10-29T16:00:47;3.15;;;1.83;;
21474;SDS011;10899;53.576;9.960;2022-10-29T16:03:15;3.78;;;1.88;;
21474;SDS011;10899;53.576;9.960;2022-10-29T16:05:43;2.95;;;2.25;;
21474;SDS011;10899;53.576;9.960;2022-10-29T16:08:24;3.95;;;1.75;;
21474;SDS011;10899;53.576;9.960;2022-10-29T16:10:52;3.28;;;1.85;;
21474;SDS011;10899;53.576;9.960;2022-10-29T16:13:19;2.22;;;1.50;;
21474;SDS011;10899;53.576;9.960;2022-10-29T16:15:46;3.40;;;1.73;;
21474;SDS011;10899;53.576;9.960;2022-10-29T16:18:13;4.55;;;1.63;;
21474;SDS011;10899;53.576;9.960;2022-10-29T16:20:39;3.20;;;1.90;;
21474;SDS011;10899;53.576;9.960;2022-10-29T16:23:09;3.97;;;1.80;;
21474;SDS011;10899;53.576;9.960;2022-10-29T16:25:36;4.32;;;1.50;;
21474;SDS011;10899;53.576;9.960;2022-10-29T16:28:03;4.28;;;2.13;;
21474;SDS011;10899;53.576;9.960;2022-10-29T16:30:29;4.38;;;1.98;;
21474;SDS011;10899;53.576;9.960;2022-10-29T16:32:56;3.25;;;1.75;;
21474;SDS011;10899;53.576;9.960;2022-10-29T16:35:26;3.50;;;1.83;;
21474;SDS011;10899;53.576;9.960;2022-10-29T16:37:53;6.15;;;2.00;;
21474;SDS011;10899;53.576;9.960;2022-10-29T16:40:21;3.83;;;2.22;;
21474;SDS011;10899;53.576;9.960;2022-10-29T16:42:49;5.55;;;2.13;;
21474;SDS011;10899;53.576;9.960;2022-10-29T16:45:19;6.75;;;2.03;;
21474;SDS011;10899;53.576;9.960;2022-10-29T16:47:46;5.45;;;1.90;;
21474;SDS011;10899;53.576;9.960;2022-10-29T16:50:31;3.80;;;1.88;;
21474;SDS011;10899;53.576;9.960;2022-10-29T16:53:02;2.78;;;1.90;;
21474;SDS011;10899;53.576;9.960;2022-10-29T16:55:30;4.43;;;2.00;;
21474;SDS011;10899;53.576;9.960;2022-10-29T16:57:57;5.85;;;2.30;;
21474;SDS011;10899;53.576;9.960;2022-10-29T17:00:23;4.07;;;2.20;;
21474;SDS011;10899;53.576;9.960;2022-10-29T17:02:50;5.97;;;2.30;;
21474;SDS011;10899;53.576;9.960;2022-10-29T17:05:17;3.83;;;2.10;;
21474;SDS011;10899;53.576;9.960;2022-10-29T17:07:43;3.90;;;2.00;;
21474;SDS011;10899;53.576;9.960;2022-10-29T17:10:10;4.95;;;2.05;;
21474;SDS011;10899;53.576;9.960;2022-10-29T17:12:37;3.95;;;2.42;;
21474;SDS011;10899;53.576;9.960;2022-10-29T17:15:03;5.03;;;2.08;;
21474;SDS011;10899;53.576;9.960;2022-10-29T17:17:30;5.28;;;2.00;;
21474;SDS011;10899;53.576;9.960;2022-10-29T17:19:57;4.63;;;2.42;;
21474;SDS011;10899;53.576;9.960;2022-10-29T17:22:23;3.50;;;2.20;;
21474;SDS011;10899;53.576;9.960;2022-10-29T17:24:50;4.25;;;1.98;;
21474;SDS011;10899;53.576;9.960;2022-10-29T17:27:16;5.05;;;2.00;;